Aérodrome :
LOGIN :

S'inscrire | Disclaimer

   EN    FR    IT 

 










Légende :    VFR   VFR Marginal   IFR   IFR Intensif   IFR Très Intensif
Visi : 
Plafond : 
>= 8 km
>= 3000ft
5 à 8 km
1000 à 3000 ft
1500m à 5 km
500 à 1000 ft
800 à 1500m
200 à 500 ft
< 800m
< 200 ft
Symboles :   Orages  Brouillard  Fortes neiges  Fortes précipitations  Vent > 20 kt
SIGMETs :   Divers  Orages  Givrage  Turbulence  Onde Orograph.  Cendres Volcan.






- Altitude de l'aérodrome : 364 ft


LFAQ - Albert Bray

DERNIER METAR :
  • 080830Z AUTO 21020KT 9999 OVC007 10/09 Q1005 TEMPO 20020G30KT 4000 RADZ

METARs EXPIRÉS :
  • 080800Z AUTO 21020KT 9999 OVC008 09/09 Q1005 TEMPO 20020G30KT 4000 RADZ
  • 080730Z AUTO 21019KT 9999 BKN009/// OVC016/// ///TCU 09/09 Q1006 TEMPO 20020G30KT 4000 RADZ OVC009
  • 080700Z AUTO 20017KT 6000 RA BKN009/// BKN014/// OVC019/// ///TCU 09/09 Q1006 TEMPO 20020G30KT 4000 RADZ OVC009
  • 080630Z AUTO 21017KT 6000 RA BKN015/// BKN021/// OVC026/// ///TCU 09/08 Q1006 TEMPO 20020G30KT 4000 RADZ OVC009
  • 080600Z AUTO 20018KT 7000 RA SCT019/// SCT024/// BKN031/// ///TCU 09/08 Q1007

TAF TAF LFAQ
Valide du 08 à 06h jusqu'au 08 à 15h UTC


080500Z 0806/0815 20018KT 9999 OVC018
TEMPO 0806/0811 20020G30KT 4000 RADZ OVC009
FM081100 26020G30KT 9999 SCT030



MET'MAP, la Météo Aéronautique d'un coup d'oeil ! - Copyright ORBIFLY Décembre 2007 - Disclaimer

ORBIFLY MET'MAP TEAM :

Programmation & Développement : Alexandra Zaïnal
Sur une idée originale de : Baudouin d'Aumeries
Assistance à la programmation : Marc-Olivier Méhu
Soutien technique & logistique : Manuel Goepfert

Contact : metmap@orbifly.com




SOURCES & CREDITS :

   NOAA